createdAt,value
2022-09-26T06:01:41.056Z,99476.56
2022-09-26T06:04:57.076Z,99477.97
2022-09-26T06:08:24.808Z,99486.47
2022-09-26T06:11:58.357Z,99471.72
2022-09-26T06:15:00.766Z,99469.47
2022-09-26T06:18:04.752Z,99472.19
2022-09-26T06:21:09.615Z,99463.63
2022-09-26T06:24:13.153Z,99459.09
2022-09-26T06:27:16.243Z,99458.84
2022-09-26T06:30:18.123Z,99453.78
2022-09-26T06:33:21.669Z,99443.94
2022-09-26T06:36:34.082Z,99442.13
2022-09-26T06:39:36.871Z,99440.69
2022-09-26T06:42:40.291Z,99437.88
2022-09-26T06:46:03.060Z,99436.03
2022-09-26T06:49:16.619Z,99431.38
2022-09-26T06:52:36.000Z,99440.16
2022-09-26T06:55:38.095Z,99424.63
2022-09-26T06:58:39.742Z,99413.63
2022-09-26T07:01:44.314Z,99411.94
2022-09-26T07:05:23.312Z,99416.75
2022-09-26T07:08:49.989Z,99419.59
2022-09-26T07:12:13.551Z,99419.88
2022-09-26T07:15:17.036Z,99426.38
2022-09-26T07:18:18.581Z,99412.41
2022-09-26T07:21:35.049Z,99420.63
2022-09-26T07:24:49.501Z,99418.50
2022-09-26T07:27:52.376Z,99403.81
2022-09-26T07:30:58.784Z,99401.16
2022-09-26T07:34:18.735Z,99397.88
2022-09-26T07:37:21.218Z,99389.88
2022-09-26T07:40:23.763Z,99390.94
2022-09-26T07:43:50.263Z,99385.13
2022-09-26T07:47:06.236Z,99380.47
2022-09-26T07:50:16.994Z,99378.59
2022-09-26T07:53:41.411Z,99369.78
2022-09-26T07:57:09.118Z,99361.22
2022-09-26T08:00:31.354Z,99361.50
2022-09-26T08:03:55.589Z,99367.97
2022-09-26T08:07:02.307Z,99366.34
2022-09-26T08:10:06.541Z,99361.72
2022-09-26T08:13:44.870Z,99373.06
2022-09-26T08:17:14.357Z,99372.13
2022-09-26T08:20:16.473Z,99362.88
2022-09-26T08:23:18.125Z,99359.84
2022-09-26T08:26:43.903Z,99354.25
2022-09-26T08:29:56.804Z,99358.09
2022-09-26T08:33:01.247Z,99354.63
2022-09-26T08:36:10.273Z,99354.31
2022-09-26T08:39:33.302Z,99352.22
2022-09-26T08:43:35.690Z,99355.97
2022-09-26T08:47:30.079Z,99350.59
2022-09-26T08:50:59.306Z,99333.81
2022-09-26T08:54:11.179Z,99328.72
2022-09-26T08:57:39.167Z,99331.75
2022-09-26T09:00:41.665Z,99335.03
2022-09-26T09:03:59.979Z,99322.34
2022-09-26T09:07:20.602Z,99320.25
2022-09-26T09:10:42.746Z,99319.53
2022-09-26T09:14:20.543Z,99306.88
2022-09-26T09:18:18.281Z,99306.06
2022-09-26T09:21:44.706Z,99304.25
2022-09-26T09:25:43.144Z,99292.78
2022-09-26T09:28:56.875Z,99302.69
2022-09-26T09:32:02.278Z,99293.56
2022-09-26T09:35:30.117Z,99296.06
2022-09-26T09:38:39.030Z,99297.22
2022-09-26T09:41:55.435Z,99290.31
2022-09-26T09:45:04.018Z,99300.03
2022-09-26T09:48:12.417Z,99292.41
2022-09-26T09:51:40.466Z,99298.28
2022-09-26T09:54:50.419Z,99287.41
2022-09-26T09:58:17.228Z,99284.34
2022-09-26T10:01:28.509Z,99269.50
2022-09-26T10:05:00.337Z,99277.41
2022-09-26T10:08:04.481Z,99274.25
2022-09-26T10:11:31.826Z,99258.59
2022-09-26T10:14:56.558Z,99267.09
2022-09-26T10:18:26.386Z,99262.97
2022-09-26T10:21:42.423Z,99261.31
2022-09-26T10:24:47.170Z,99258.75
2022-09-26T10:27:57.859Z,99256.50
2022-09-26T10:31:08.978Z,99250.53
2022-09-26T10:34:30.381Z,99252.88
2022-09-26T10:37:36.149Z,99255.88
2022-09-26T10:40:55.091Z,99252.34
2022-09-26T10:43:59.391Z,99249.09
2022-09-26T10:47:31.398Z,99250.44
2022-09-26T10:50:53.261Z,99248.38
2022-09-26T10:54:04.376Z,99246.47
2022-09-26T10:57:12.433Z,99252.66
2022-09-26T11:00:40.117Z,99245.13
2022-09-26T11:04:10.224Z,99245.13
2022-09-26T11:07:35.871Z,99234.19
2022-09-26T11:11:15.184Z,99227.06
2022-09-26T11:14:32.623Z,99212.50
2022-09-26T11:17:47.920Z,99207.19
2022-09-26T11:20:53.496Z,99195.31
2022-09-26T11:30:48.271Z,99185.06
2022-09-26T11:33:56.017Z,99186.22
2022-09-26T11:41:16.516Z,99183.94
2022-09-26T11:45:07.064Z,99180.91
2022-09-26T11:48:43.854Z,99175.47
2022-09-26T11:52:43.282Z,99181.16
2022-09-26T11:56:07.880Z,99169.56
2022-09-26T11:59:24.745Z,99159.06
2022-09-26T12:02:35.328Z,99157.91
2022-09-26T12:05:48.843Z,99157.72
2022-09-26T12:08:53.209Z,99166.09
2022-09-26T12:12:17.961Z,99154.13
2022-09-26T12:15:31.632Z,99141.72
2022-09-26T12:18:47.118Z,99141.84
2022-09-26T12:22:28.441Z,99141.34
2022-09-26T12:25:47.950Z,99143.00
2022-09-26T12:29:06.308Z,99133.50
2022-09-26T12:32:07.885Z,99129.53
2022-09-26T12:35:37.437Z,99115.56
2022-09-26T12:39:08.742Z,99114.06
2022-09-26T12:42:35.037Z,99110.56
2022-09-26T12:45:55.302Z,99097.63
2022-09-26T12:49:55.066Z,99092.13
2022-09-26T12:52:59.182Z,99081.88
2022-09-26T12:56:23.025Z,99080.91
2022-09-26T12:59:43.932Z,99078.72
2022-09-26T13:03:13.525Z,99074.88
2022-09-26T13:06:27.577Z,99072.50
2022-09-26T13:09:38.919Z,99065.59
2022-09-26T13:12:49.858Z,99057.53
2022-09-26T13:15:58.000Z,99067.25
2022-09-26T13:19:12.744Z,99049.72
2022-09-26T13:22:34.401Z,99054.44
2022-09-26T13:25:54.367Z,99031.66
2022-09-26T13:29:23.306Z,99035.38
2022-09-26T13:32:48.386Z,99029.16
2022-09-26T13:35:52.245Z,99034.16
2022-09-26T13:38:59.944Z,99031.16
2022-09-26T13:42:22.614Z,99027.41
2022-09-26T13:45:50.641Z,99029.25
2022-09-26T13:49:02.211Z,99032.41
2022-09-26T13:52:52.324Z,99022.06
2022-09-26T13:56:41.221Z,99011.84
2022-09-26T13:59:54.148Z,99010.84
2022-09-26T14:03:14.016Z,99008.03
2022-09-26T14:06:26.481Z,99000.97
2022-09-26T14:09:42.052Z,98998.38
2022-09-26T14:12:55.696Z,98998.38
2022-09-26T14:16:28.197Z,98995.66
2022-09-26T14:19:45.716Z,98993.09
2022-09-26T14:22:52.595Z,98986.03
2022-09-26T14:25:55.670Z,98977.47
2022-09-26T14:29:25.276Z,98976.06
2022-09-26T14:32:38.525Z,98957.91
2022-09-26T14:35:40.105Z,98954.34
2022-09-26T14:38:45.327Z,98952.81
2022-09-26T14:41:46.936Z,98946.47
2022-09-26T14:44:55.486Z,98936.56
2022-09-26T14:48:12.838Z,98942.78
2022-09-26T14:51:19.174Z,98936.09
2022-09-26T14:54:31.902Z,98933.34
2022-09-26T14:57:34.653Z,98928.50
2022-09-26T15:00:43.333Z,98922.44
2022-09-26T15:03:56.918Z,98915.72
2022-09-26T15:07:03.925Z,98912.47
2022-09-26T15:10:14.293Z,98911.44
2022-09-26T15:13:30.875Z,98910.63
2022-09-26T15:16:40.549Z,98899.38
2022-09-26T15:19:49.933Z,98898.34
2022-09-26T15:22:57.215Z,98894.38
2022-09-26T15:26:06.052Z,98883.75
2022-09-26T15:29:12.386Z,98876.38
2022-09-26T15:32:19.141Z,98872.34
2022-09-26T15:35:20.570Z,98860.75
2022-09-26T15:38:23.822Z,98873.19
2022-09-26T15:41:43.910Z,98859.91
2022-09-26T15:44:54.872Z,98865.28
2022-09-26T15:47:58.839Z,98860.09
2022-09-26T15:51:15.688Z,98852.69
2022-09-26T15:54:23.780Z,98852.03
2022-09-26T15:57:28.034Z,98835.38
2022-09-26T16:00:37.537Z,98837.22
2022-09-26T16:03:57.320Z,98837.53
2022-09-26T16:07:14.944Z,98826.81
2022-09-26T16:10:28.509Z,98824.94
2022-09-26T16:13:39.992Z,98827.63
2022-09-26T16:16:41.653Z,98828.94
2022-09-26T16:19:53.688Z,98805.13
2022-09-26T16:23:03.375Z,98819.25
2022-09-26T16:26:31.216Z,98810.69
2022-09-26T16:29:35.373Z,98808.97
2022-09-26T16:32:37.345Z,98801.78
2022-09-26T16:35:47.385Z,98804.63
2022-09-26T16:39:03.815Z,98805.78
2022-09-26T16:42:16.969Z,98801.56
2022-09-26T16:45:18.950Z,98796.53
2022-09-26T16:48:38.978Z,98806.59
2022-09-26T16:51:40.925Z,98810.44
2022-09-26T16:54:42.647Z,98802.72
2022-09-26T16:57:55.802Z,98801.19
2022-09-26T17:01:15.943Z,98804.84
2022-09-26T17:04:19.536Z,98786.06
2022-09-26T17:07:22.849Z,98784.53
2022-09-26T17:10:25.610Z,98784.72
2022-09-26T17:13:32.833Z,98794.06
2022-09-26T17:16:34.476Z,98791.38
2022-09-26T17:19:41.164Z,98794.75
2022-09-26T17:22:42.807Z,98789.06
2022-09-26T17:25:48.165Z,98784.16
2022-09-26T17:28:52.853Z,98779.34
2022-09-26T17:31:56.031Z,98767.22
2022-09-26T17:35:00.894Z,98790.09
2022-09-26T17:38:03.062Z,98769.06
2022-09-26T17:41:04.759Z,98768.94
2022-09-26T17:44:06.411Z,98774.13
2022-09-26T17:47:10.606Z,98769.56
2022-09-26T17:50:23.157Z,98768.59
2022-09-26T17:53:25.455Z,98755.16
2022-09-26T17:56:27.176Z,98754.47
2022-09-26T17:59:29.102Z,98754.34
2022-09-26T20:54:46.885Z,98555.97
2022-09-26T21:48:36.106Z,98515.03
2022-09-26T21:55:32.012Z,98505.78
2022-09-26T21:59:24.443Z,98507.78
2022-09-26T22:02:28.097Z,98507.94
2022-09-26T22:06:16.659Z,98501.44
2022-09-26T22:09:38.246Z,98498.88
2022-09-26T22:12:40.499Z,98494.69
2022-09-26T22:15:42.270Z,98495.84
2022-09-26T22:18:44.336Z,98487.53
2022-09-26T22:21:46.229Z,98483.81
2022-09-26T22:24:50.664Z,98482.31
2022-09-26T22:27:52.519Z,98476.94
2022-09-26T22:31:06.970Z,98468.41
2022-09-26T22:34:08.991Z,98462.03
2022-09-26T22:37:13.451Z,98464.03
2022-09-26T22:40:18.072Z,98455.97
2022-09-26T22:43:21.149Z,98449.09
2022-09-26T22:46:25.925Z,98440.38
2022-09-26T22:49:27.952Z,98448.75
2022-09-26T22:52:31.041Z,98447.59
2022-09-26T22:55:37.559Z,98442.69
2022-09-26T22:58:43.950Z,98432.34
2022-09-26T23:01:59.570Z,98428.47
2022-09-26T23:05:04.509Z,98433.00
2022-09-26T23:08:06.314Z,98429.31
2022-09-26T23:11:28.657Z,98424.81
2022-09-26T23:14:34.408Z,98415.63
2022-09-26T23:17:37.093Z,98411.25
2022-09-26T23:20:43.025Z,98403.75
2022-09-26T23:23:46.528Z,98403.91
2022-09-26T23:26:48.297Z,98401.72
2022-09-26T23:29:50.019Z,98401.56
2022-09-26T23:32:51.699Z,98390.88
2022-09-26T23:35:58.041Z,98392.06
2022-09-26T23:38:59.900Z,98385.19
2022-09-26T23:42:02.708Z,98386.00
2022-09-26T23:45:04.980Z,98380.50
2022-09-26T23:48:06.677Z,98367.25
2022-09-26T23:51:09.320Z,98368.97
2022-09-26T23:54:11.342Z,98372.31
2022-09-26T23:57:12.948Z,98369.94
